sensor_id;sensor_type;location;lat;lon;timestamp;P1;durP1;ratioP1;P2;durP2;ratioP2
6821;SDS011;3449;48.728;8.968;2023-07-08T00:00:12;11.40;;;6.00;;
6821;SDS011;3449;48.728;8.968;2023-07-08T00:02:41;9.20;;;5.40;;
6821;SDS011;3449;48.728;8.968;2023-07-08T00:05:09;13.40;;;6.33;;
6821;SDS011;3449;48.728;8.968;2023-07-08T00:07:38;8.27;;;5.63;;
6821;SDS011;3449;48.728;8.968;2023-07-08T00:10:12;11.10;;;5.70;;
6821;SDS011;3449;48.728;8.968;2023-07-08T00:12:41;10.13;;;5.40;;
6821;SDS011;3449;48.728;8.968;2023-07-08T00:15:08;11.07;;;6.10;;
6821;SDS011;3449;48.728;8.968;2023-07-08T00:17:38;10.57;;;5.93;;
6821;SDS011;3449;48.728;8.968;2023-07-08T00:20:09;10.97;;;5.90;;
6821;SDS011;3449;48.728;8.968;2023-07-08T00:22:40;10.73;;;5.87;;
6821;SDS011;3449;48.728;8.968;2023-07-08T00:25:09;16.30;;;6.20;;
6821;SDS011;3449;48.728;8.968;2023-07-08T00:27:36;10.10;;;5.33;;
6821;SDS011;3449;48.728;8.968;2023-07-08T00:30:09;10.50;;;5.00;;
6821;SDS011;3449;48.728;8.968;2023-07-08T00:32:44;14.27;;;7.73;;
6821;SDS011;3449;48.728;8.968;2023-07-08T00:35:14;15.70;;;7.10;;
6821;SDS011;3449;48.728;8.968;2023-07-08T00:37:45;20.63;;;6.17;;
6821;SDS011;3449;48.728;8.968;2023-07-08T00:40:13;8.37;;;4.77;;
6821;SDS011;3449;48.728;8.968;2023-07-08T00:42:42;9.30;;;5.80;;
6821;SDS011;3449;48.728;8.968;2023-07-08T00:45:15;10.33;;;6.17;;
6821;SDS011;3449;48.728;8.968;2023-07-08T00:47:46;12.53;;;5.27;;
6821;SDS011;3449;48.728;8.968;2023-07-08T00:50:15;11.53;;;5.40;;
6821;SDS011;3449;48.728;8.968;2023-07-08T00:52:42;10.70;;;5.80;;
6821;SDS011;3449;48.728;8.968;2023-07-08T00:55:14;14.43;;;5.30;;
6821;SDS011;3449;48.728;8.968;2023-07-08T00:57:41;13.53;;;5.17;;
6821;SDS011;3449;48.728;8.968;2023-07-08T01:00:12;11.03;;;5.30;;
6821;SDS011;3449;48.728;8.968;2023-07-08T01:02:43;11.70;;;5.43;;
6821;SDS011;3449;48.728;8.968;2023-07-08T01:05:15;10.80;;;6.07;;
6821;SDS011;3449;48.728;8.968;2023-07-08T01:07:46;9.40;;;5.40;;
6821;SDS011;3449;48.728;8.968;2023-07-08T01:10:19;10.67;;;5.77;;
6821;SDS011;3449;48.728;8.968;2023-07-08T01:12:53;12.93;;;5.13;;
6821;SDS011;3449;48.728;8.968;2023-07-08T01:15:25;8.70;;;5.37;;
6821;SDS011;3449;48.728;8.968;2023-07-08T01:18:01;8.80;;;5.50;;
6821;SDS011;3449;48.728;8.968;2023-07-08T01:20:28;14.97;;;8.10;;
6821;SDS011;3449;48.728;8.968;2023-07-08T01:22:56;13.33;;;5.37;;
6821;SDS011;3449;48.728;8.968;2023-07-08T01:25:23;13.17;;;6.80;;
6821;SDS011;3449;48.728;8.968;2023-07-08T01:27:52;12.73;;;6.17;;
6821;SDS011;3449;48.728;8.968;2023-07-08T01:30:23;10.37;;;5.57;;
6821;SDS011;3449;48.728;8.968;2023-07-08T01:32:54;16.30;;;6.00;;
6821;SDS011;3449;48.728;8.968;2023-07-08T01:35:26;11.50;;;6.70;;
6821;SDS011;3449;48.728;8.968;2023-07-08T01:37:53;9.13;;;5.20;;
6821;SDS011;3449;48.728;8.968;2023-07-08T01:40:28;12.50;;;6.40;;
6821;SDS011;3449;48.728;8.968;2023-07-08T01:42:56;10.67;;;5.83;;
6821;SDS011;3449;48.728;8.968;2023-07-08T01:45:24;11.20;;;5.17;;
6821;SDS011;3449;48.728;8.968;2023-07-08T01:47:53;10.30;;;5.90;;
6821;SDS011;3449;48.728;8.968;2023-07-08T01:50:26;10.77;;;5.70;;
6821;SDS011;3449;48.728;8.968;2023-07-08T01:52:56;13.13;;;5.60;;
6821;SDS011;3449;48.728;8.968;2023-07-08T01:55:27;12.70;;;6.20;;
6821;SDS011;3449;48.728;8.968;2023-07-08T01:57:56;13.27;;;5.50;;
6821;SDS011;3449;48.728;8.968;2023-07-08T02:00:23;10.73;;;6.30;;
6821;SDS011;3449;48.728;8.968;2023-07-08T02:02:50;14.03;;;7.43;;
6821;SDS011;3449;48.728;8.968;2023-07-08T02:05:17;12.03;;;7.13;;
6821;SDS011;3449;48.728;8.968;2023-07-08T02:07:44;14.50;;;6.90;;
6821;SDS011;3449;48.728;8.968;2023-07-08T02:10:11;11.87;;;6.17;;
6821;SDS011;3449;48.728;8.968;2023-07-08T02:12:39;11.57;;;6.47;;
6821;SDS011;3449;48.728;8.968;2023-07-08T02:15:07;11.73;;;5.80;;
6821;SDS011;3449;48.728;8.968;2023-07-08T02:17:37;16.27;;;6.37;;
6821;SDS011;3449;48.728;8.968;2023-07-08T02:20:04;18.30;;;7.30;;
6821;SDS011;3449;48.728;8.968;2023-07-08T02:22:33;11.30;;;6.07;;
6821;SDS011;3449;48.728;8.968;2023-07-08T02:25:00;11.80;;;6.70;;
6821;SDS011;3449;48.728;8.968;2023-07-08T02:27:27;16.23;;;6.37;;
6821;SDS011;3449;48.728;8.968;2023-07-08T02:29:56;13.17;;;7.53;;
6821;SDS011;3449;48.728;8.968;2023-07-08T02:32:22;13.53;;;7.33;;
6821;SDS011;3449;48.728;8.968;2023-07-08T02:34:49;14.67;;;6.47;;
6821;SDS011;3449;48.728;8.968;2023-07-08T02:37:17;13.33;;;7.37;;
6821;SDS011;3449;48.728;8.968;2023-07-08T02:39:44;12.47;;;6.43;;
6821;SDS011;3449;48.728;8.968;2023-07-08T02:42:13;12.97;;;6.07;;
6821;SDS011;3449;48.728;8.968;2023-07-08T02:44:40;11.83;;;6.00;;
6821;SDS011;3449;48.728;8.968;2023-07-08T02:47:08;11.57;;;6.13;;
6821;SDS011;3449;48.728;8.968;2023-07-08T02:49:35;13.00;;;7.80;;
6821;SDS011;3449;48.728;8.968;2023-07-08T02:52:02;11.67;;;6.60;;
6821;SDS011;3449;48.728;8.968;2023-07-08T02:54:32;10.87;;;5.80;;
6821;SDS011;3449;48.728;8.968;2023-07-08T02:56:59;11.50;;;5.40;;
6821;SDS011;3449;48.728;8.968;2023-07-08T02:59:28;10.53;;;6.03;;
6821;SDS011;3449;48.728;8.968;2023-07-08T03:01:58;11.60;;;6.10;;
6821;SDS011;3449;48.728;8.968;2023-07-08T03:04:29;13.90;;;6.60;;
6821;SDS011;3449;48.728;8.968;2023-07-08T03:06:55;13.10;;;5.33;;
6821;SDS011;3449;48.728;8.968;2023-07-08T03:09:26;14.13;;;6.33;;
6821;SDS011;3449;48.728;8.968;2023-07-08T03:11:56;12.97;;;6.77;;
6821;SDS011;3449;48.728;8.968;2023-07-08T03:14:23;10.80;;;6.70;;
6821;SDS011;3449;48.728;8.968;2023-07-08T03:16:50;19.03;;;7.10;;
6821;SDS011;3449;48.728;8.968;2023-07-08T03:19:17;14.10;;;6.40;;
6821;SDS011;3449;48.728;8.968;2023-07-08T03:21:48;10.73;;;5.80;;
6821;SDS011;3449;48.728;8.968;2023-07-08T03:24:15;15.87;;;6.60;;
6821;SDS011;3449;48.728;8.968;2023-07-08T03:26:45;12.07;;;6.10;;
6821;SDS011;3449;48.728;8.968;2023-07-08T03:29:13;12.63;;;6.77;;
6821;SDS011;3449;48.728;8.968;2023-07-08T03:31:41;18.93;;;9.33;;
6821;SDS011;3449;48.728;8.968;2023-07-08T03:34:11;12.73;;;7.90;;
6821;SDS011;3449;48.728;8.968;2023-07-08T03:36:40;14.20;;;8.47;;
6821;SDS011;3449;48.728;8.968;2023-07-08T03:39:15;13.63;;;8.30;;
6821;SDS011;3449;48.728;8.968;2023-07-08T03:41:44;12.90;;;7.40;;
6821;SDS011;3449;48.728;8.968;2023-07-08T03:44:11;11.07;;;8.63;;
6821;SDS011;3449;48.728;8.968;2023-07-08T03:46:40;10.70;;;7.43;;
6821;SDS011;3449;48.728;8.968;2023-07-08T03:49:08;25.10;;;10.57;;
6821;SDS011;3449;48.728;8.968;2023-07-08T03:51:35;13.07;;;8.33;;
6821;SDS011;3449;48.728;8.968;2023-07-08T03:54:04;11.30;;;6.80;;
6821;SDS011;3449;48.728;8.968;2023-07-08T03:56:33;17.43;;;10.43;;
6821;SDS011;3449;48.728;8.968;2023-07-08T03:58:59;21.50;;;6.23;;
6821;SDS011;3449;48.728;8.968;2023-07-08T04:01:29;19.07;;;11.37;;
6821;SDS011;3449;48.728;8.968;2023-07-08T04:03:56;13.77;;;9.13;;
6821;SDS011;3449;48.728;8.968;2023-07-08T04:06:24;21.93;;;13.43;;
6821;SDS011;3449;48.728;8.968;2023-07-08T04:08:53;15.70;;;9.67;;
6821;SDS011;3449;48.728;8.968;2023-07-08T04:11:21;14.53;;;9.90;;
6821;SDS011;3449;48.728;8.968;2023-07-08T04:13:50;12.70;;;10.07;;
6821;SDS011;3449;48.728;8.968;2023-07-08T04:16:18;11.77;;;10.53;;
6821;SDS011;3449;48.728;8.968;2023-07-08T04:18:47;17.30;;;11.27;;
6821;SDS011;3449;48.728;8.968;2023-07-08T04:21:16;13.10;;;8.13;;
6821;SDS011;3449;48.728;8.968;2023-07-08T04:23:43;12.93;;;8.60;;
6821;SDS011;3449;48.728;8.968;2023-07-08T04:26:10;16.33;;;11.83;;
6821;SDS011;3449;48.728;8.968;2023-07-08T04:28:37;15.80;;;10.00;;
6821;SDS011;3449;48.728;8.968;2023-07-08T04:31:05;39.37;;;17.63;;
6821;SDS011;3449;48.728;8.968;2023-07-08T04:33:40;19.13;;;14.03;;
6821;SDS011;3449;48.728;8.968;2023-07-08T04:36:09;13.60;;;11.63;;
6821;SDS011;3449;48.728;8.968;2023-07-08T04:38:39;15.20;;;6.60;;
6821;SDS011;3449;48.728;8.968;2023-07-08T04:41:07;16.33;;;9.10;;
6821;SDS011;3449;48.728;8.968;2023-07-08T04:43:34;15.87;;;10.77;;
6821;SDS011;3449;48.728;8.968;2023-07-08T04:46:00;13.33;;;8.03;;
6821;SDS011;3449;48.728;8.968;2023-07-08T04:48:29;9.43;;;6.47;;
6821;SDS011;3449;48.728;8.968;2023-07-08T04:50:57;11.20;;;8.37;;
6821;SDS011;3449;48.728;8.968;2023-07-08T04:53:24;17.43;;;13.13;;
6821;SDS011;3449;48.728;8.968;2023-07-08T04:55:55;18.33;;;8.93;;
6821;SDS011;3449;48.728;8.968;2023-07-08T04:58:22;14.77;;;9.73;;
6821;SDS011;3449;48.728;8.968;2023-07-08T05:00:49;15.97;;;11.03;;
6821;SDS011;3449;48.728;8.968;2023-07-08T05:03:16;11.50;;;7.67;;
6821;SDS011;3449;48.728;8.968;2023-07-08T05:05:44;17.33;;;12.37;;
6821;SDS011;3449;48.728;8.968;2023-07-08T05:08:11;20.10;;;13.40;;
6821;SDS011;3449;48.728;8.968;2023-07-08T05:10:38;18.03;;;10.87;;
6821;SDS011;3449;48.728;8.968;2023-07-08T05:13:05;9.30;;;6.40;;
6821;SDS011;3449;48.728;8.968;2023-07-08T05:15:32;13.57;;;6.87;;
6821;SDS011;3449;48.728;8.968;2023-07-08T05:18:00;16.93;;;11.13;;
6821;SDS011;3449;48.728;8.968;2023-07-08T05:20:31;26.63;;;17.30;;
6821;SDS011;3449;48.728;8.968;2023-07-08T05:23:01;11.90;;;9.17;;
6821;SDS011;3449;48.728;8.968;2023-07-08T05:25:31;17.83;;;10.03;;
6821;SDS011;3449;48.728;8.968;2023-07-08T05:27:58;15.93;;;8.80;;
6821;SDS011;3449;48.728;8.968;2023-07-08T05:30:26;20.07;;;10.27;;
6821;SDS011;3449;48.728;8.968;2023-07-08T05:32:52;27.90;;;14.27;;
6821;SDS011;3449;48.728;8.968;2023-07-08T05:35:21;15.70;;;9.47;;
6821;SDS011;3449;48.728;8.968;2023-07-08T05:37:49;15.43;;;6.80;;
6821;SDS011;3449;48.728;8.968;2023-07-08T05:40:17;8.87;;;5.27;;
6821;SDS011;3449;48.728;8.968;2023-07-08T05:42:44;19.70;;;10.47;;
6821;SDS011;3449;48.728;8.968;2023-07-08T05:45:11;11.10;;;6.87;;
6821;SDS011;3449;48.728;8.968;2023-07-08T05:47:38;12.10;;;9.10;;
6821;SDS011;3449;48.728;8.968;2023-07-08T05:50:05;10.97;;;7.77;;
6821;SDS011;3449;48.728;8.968;2023-07-08T05:52:33;14.43;;;10.00;;
6821;SDS011;3449;48.728;8.968;2023-07-08T05:55:00;13.87;;;9.33;;
6821;SDS011;3449;48.728;8.968;2023-07-08T05:57:33;8.60;;;4.83;;
6821;SDS011;3449;48.728;8.968;2023-07-08T06:00:00;12.53;;;8.37;;
6821;SDS011;3449;48.728;8.968;2023-07-08T06:02:27;10.80;;;7.10;;
6821;SDS011;3449;48.728;8.968;2023-07-08T06:04:54;13.73;;;6.40;;
6821;SDS011;3449;48.728;8.968;2023-07-08T06:07:20;12.77;;;9.43;;
6821;SDS011;3449;48.728;8.968;2023-07-08T06:09:47;13.17;;;7.90;;
6821;SDS011;3449;48.728;8.968;2023-07-08T06:12:16;13.20;;;6.40;;
6821;SDS011;3449;48.728;8.968;2023-07-08T06:14:44;27.87;;;9.70;;
6821;SDS011;3449;48.728;8.968;2023-07-08T06:17:11;8.80;;;5.37;;
6821;SDS011;3449;48.728;8.968;2023-07-08T06:19:38;11.60;;;5.20;;
6821;SDS011;3449;48.728;8.968;2023-07-08T06:22:05;12.80;;;7.40;;
6821;SDS011;3449;48.728;8.968;2023-07-08T06:24:32;13.17;;;9.47;;
6821;SDS011;3449;48.728;8.968;2023-07-08T06:26:58;14.23;;;8.27;;
6821;SDS011;3449;48.728;8.968;2023-07-08T06:29:25;10.47;;;6.27;;
6821;SDS011;3449;48.728;8.968;2023-07-08T06:31:54;10.03;;;6.83;;
6821;SDS011;3449;48.728;8.968;2023-07-08T06:34:21;9.90;;;6.30;;
6821;SDS011;3449;48.728;8.968;2023-07-08T06:36:49;10.10;;;5.20;;
6821;SDS011;3449;48.728;8.968;2023-07-08T06:39:16;10.43;;;5.03;;
6821;SDS011;3449;48.728;8.968;2023-07-08T06:41:43;10.40;;;6.93;;
6821;SDS011;3449;48.728;8.968;2023-07-08T06:44:10;8.70;;;4.30;;
6821;SDS011;3449;48.728;8.968;2023-07-08T06:46:37;8.37;;;4.57;;
6821;SDS011;3449;48.728;8.968;2023-07-08T06:49:05;9.77;;;6.50;;
6821;SDS011;3449;48.728;8.968;2023-07-08T06:51:34;6.40;;;4.60;;
6821;SDS011;3449;48.728;8.968;2023-07-08T06:54:01;11.33;;;6.20;;
6821;SDS011;3449;48.728;8.968;2023-07-08T06:56:29;10.27;;;5.57;;
6821;SDS011;3449;48.728;8.968;2023-07-08T06:58:56;5.33;;;4.50;;
6821;SDS011;3449;48.728;8.968;2023-07-08T07:01:23;6.63;;;3.73;;
6821;SDS011;3449;48.728;8.968;2023-07-08T07:03:52;5.27;;;3.23;;
6821;SDS011;3449;48.728;8.968;2023-07-08T07:06:21;11.63;;;6.43;;
6821;SDS011;3449;48.728;8.968;2023-07-08T07:08:48;4.90;;;3.30;;
6821;SDS011;3449;48.728;8.968;2023-07-08T07:11:14;8.13;;;5.73;;
6821;SDS011;3449;48.728;8.968;2023-07-08T07:13:41;8.00;;;3.43;;
6821;SDS011;3449;48.728;8.968;2023-07-08T07:16:08;8.77;;;3.70;;
6821;SDS011;3449;48.728;8.968;2023-07-08T07:18:35;12.50;;;4.30;;
6821;SDS011;3449;48.728;8.968;2023-07-08T07:21:02;10.90;;;5.90;;
6821;SDS011;3449;48.728;8.968;2023-07-08T07:23:30;10.20;;;4.10;;
6821;SDS011;3449;48.728;8.968;2023-07-08T07:25:57;9.23;;;4.23;;
6821;SDS011;3449;48.728;8.968;2023-07-08T07:28:26;7.50;;;4.23;;
6821;SDS011;3449;48.728;8.968;2023-07-08T07:30:56;8.87;;;4.90;;
6821;SDS011;3449;48.728;8.968;2023-07-08T07:33:24;30.67;;;5.13;;
6821;SDS011;3449;48.728;8.968;2023-07-08T07:35:53;9.57;;;4.20;;
6821;SDS011;3449;48.728;8.968;2023-07-08T07:38:19;6.43;;;4.87;;
6821;SDS011;3449;48.728;8.968;2023-07-08T07:40:48;7.90;;;3.60;;
6821;SDS011;3449;48.728;8.968;2023-07-08T07:43:20;5.80;;;4.23;;
6821;SDS011;3449;48.728;8.968;2023-07-08T07:45:49;11.87;;;7.00;;
6821;SDS011;3449;48.728;8.968;2023-07-08T07:48:17;27.97;;;4.50;;
6821;SDS011;3449;48.728;8.968;2023-07-08T07:50:44;22.97;;;6.17;;
6821;SDS011;3449;48.728;8.968;2023-07-08T07:53:12;13.00;;;5.20;;
6821;SDS011;3449;48.728;8.968;2023-07-08T07:55:39;6.60;;;4.33;;
6821;SDS011;3449;48.728;8.968;2023-07-08T07:58:07;6.83;;;3.37;;
6821;SDS011;3449;48.728;8.968;2023-07-08T08:00:36;16.17;;;4.67;;
6821;SDS011;3449;48.728;8.968;2023-07-08T08:03:03;6.23;;;4.63;;
6821;SDS011;3449;48.728;8.968;2023-07-08T08:05:30;8.00;;;3.27;;
6821;SDS011;3449;48.728;8.968;2023-07-08T08:07:59;8.47;;;3.47;;
6821;SDS011;3449;48.728;8.968;2023-07-08T08:10:29;3.93;;;2.97;;
6821;SDS011;3449;48.728;8.968;2023-07-08T08:12:56;7.90;;;5.03;;
6821;SDS011;3449;48.728;8.968;2023-07-08T08:15:24;5.57;;;4.10;;
6821;SDS011;3449;48.728;8.968;2023-07-08T08:17:51;4.83;;;3.00;;
6821;SDS011;3449;48.728;8.968;2023-07-08T08:20:18;5.93;;;3.70;;
6821;SDS011;3449;48.728;8.968;2023-07-08T08:22:46;5.87;;;2.73;;
6821;SDS011;3449;48.728;8.968;2023-07-08T08:25:13;5.50;;;4.20;;
6821;SDS011;3449;48.728;8.968;2023-07-08T08:27:40;5.07;;;3.20;;
6821;SDS011;3449;48.728;8.968;2023-07-08T08:30:09;8.90;;;4.20;;
6821;SDS011;3449;48.728;8.968;2023-07-08T08:32:38;4.10;;;3.20;;
6821;SDS011;3449;48.728;8.968;2023-07-08T08:35:08;5.37;;;2.40;;
6821;SDS011;3449;48.728;8.968;2023-07-08T08:37:35;8.70;;;3.80;;
6821;SDS011;3449;48.728;8.968;2023-07-08T08:40:02;4.53;;;3.43;;
6821;SDS011;3449;48.728;8.968;2023-07-08T08:42:33;6.13;;;2.80;;
6821;SDS011;3449;48.728;8.968;2023-07-08T08:45:05;5.50;;;2.83;;
6821;SDS011;3449;48.728;8.968;2023-07-08T08:47:38;6.53;;;2.97;;
6821;SDS011;3449;48.728;8.968;2023-07-08T08:50:12;3.10;;;2.30;;
6821;SDS011;3449;48.728;8.968;2023-07-08T08:52:52;2.20;;;1.77;;
6821;SDS011;3449;48.728;8.968;2023-07-08T08:55:22;6.07;;;4.00;;
6821;SDS011;3449;48.728;8.968;2023-07-08T08:57:56;3.43;;;2.23;;
6821;SDS011;3449;48.728;8.968;2023-07-08T09:00:29;4.30;;;3.10;;
6821;SDS011;3449;48.728;8.968;2023-07-08T09:03:07;8.53;;;3.07;;
6821;SDS011;3449;48.728;8.968;2023-07-08T09:05:37;6.70;;;3.83;;
6821;SDS011;3449;48.728;8.968;2023-07-08T09:08:05;3.80;;;2.33;;
6821;SDS011;3449;48.728;8.968;2023-07-08T09:10:42;6.03;;;4.40;;
6821;SDS011;3449;48.728;8.968;2023-07-08T09:13:12;5.53;;;3.30;;
6821;SDS011;3449;48.728;8.968;2023-07-08T09:15:46;5.50;;;2.53;;
6821;SDS011;3449;48.728;8.968;2023-07-08T09:18:19;3.83;;;2.30;;
6821;SDS011;3449;48.728;8.968;2023-07-08T09:20:52;5.13;;;4.10;;
6821;SDS011;3449;48.728;8.968;2023-07-08T09:23:22;5.13;;;3.57;;
6821;SDS011;3449;48.728;8.968;2023-07-08T09:25:54;3.83;;;2.53;;
6821;SDS011;3449;48.728;8.968;2023-07-08T09:28:35;5.10;;;1.97;;
6821;SDS011;3449;48.728;8.968;2023-07-08T09:31:03;11.27;;;4.90;;
6821;SDS011;3449;48.728;8.968;2023-07-08T09:33:36;12.23;;;4.27;;
6821;SDS011;3449;48.728;8.968;2023-07-08T09:36:06;5.93;;;2.50;;
6821;SDS011;3449;48.728;8.968;2023-07-08T09:38:46;5.57;;;3.10;;
6821;SDS011;3449;48.728;8.968;2023-07-08T09:41:14;5.50;;;3.87;;
6821;SDS011;3449;48.728;8.968;2023-07-08T09:44:00;35.77;;;4.77;;
6821;SDS011;3449;48.728;8.968;2023-07-08T09:46:34;3.10;;;2.30;;
6821;SDS011;3449;48.728;8.968;2023-07-08T09:49:12;4.23;;;2.70;;
6821;SDS011;3449;48.728;8.968;2023-07-08T09:51:46;2.63;;;1.93;;
6821;SDS011;3449;48.728;8.968;2023-07-08T09:54:17;4.30;;;2.87;;
6821;SDS011;3449;48.728;8.968;2023-07-08T09:56:50;3.47;;;2.03;;
6821;SDS011;3449;48.728;8.968;2023-07-08T09:59:21;3.37;;;2.73;;
6821;SDS011;3449;48.728;8.968;2023-07-08T10:01:53;3.00;;;2.40;;
6821;SDS011;3449;48.728;8.968;2023-07-08T10:04:22;7.20;;;3.10;;
6821;SDS011;3449;48.728;8.968;2023-07-08T10:06:49;5.00;;;2.27;;
6821;SDS011;3449;48.728;8.968;2023-07-08T10:09:19;11.33;;;2.90;;
6821;SDS011;3449;48.728;8.968;2023-07-08T10:11:51;5.10;;;2.53;;
6821;SDS011;3449;48.728;8.968;2023-07-08T10:14:24;5.70;;;5.13;;
6821;SDS011;3449;48.728;8.968;2023-07-08T10:16:54;5.50;;;2.50;;
6821;SDS011;3449;48.728;8.968;2023-07-08T10:19:22;7.10;;;2.70;;
6821;SDS011;3449;48.728;8.968;2023-07-08T10:21:54;9.93;;;2.40;;
6821;SDS011;3449;48.728;8.968;2023-07-08T10:24:33;4.40;;;2.40;;
6821;SDS011;3449;48.728;8.968;2023-07-08T10:27:12;9.87;;;2.93;;
6821;SDS011;3449;48.728;8.968;2023-07-08T10:29:46;4.20;;;2.13;;
6821;SDS011;3449;48.728;8.968;2023-07-08T10:32:22;5.80;;;2.50;;
6821;SDS011;3449;48.728;8.968;2023-07-08T10:35:04;4.50;;;2.20;;
6821;SDS011;3449;48.728;8.968;2023-07-08T10:37:41;12.03;;;3.33;;
6821;SDS011;3449;48.728;8.968;2023-07-08T10:40:21;3.27;;;2.73;;
6821;SDS011;3449;48.728;8.968;2023-07-08T10:43:00;6.50;;;2.47;;
6821;SDS011;3449;48.728;8.968;2023-07-08T10:45:53;4.17;;;3.40;;
6821;SDS011;3449;48.728;8.968;2023-07-08T10:48:42;4.30;;;2.60;;
6821;SDS011;3449;48.728;8.968;2023-07-08T10:51:25;6.33;;;3.80;;
6821;SDS011;3449;48.728;8.968;2023-07-08T10:54:05;3.00;;;1.80;;
6821;SDS011;3449;48.728;8.968;2023-07-08T10:57:06;4.80;;;1.93;;
6821;SDS011;3449;48.728;8.968;2023-07-08T10:59:52;2.63;;;2.37;;
6821;SDS011;3449;48.728;8.968;2023-07-08T11:02:39;3.30;;;1.90;;
6821;SDS011;3449;48.728;8.968;2023-07-08T11:05:28;1.90;;;1.47;;
6821;SDS011;3449;48.728;8.968;2023-07-08T11:08:01;2.67;;;2.00;;
6821;SDS011;3449;48.728;8.968;2023-07-08T11:10:38;3.07;;;2.20;;
6821;SDS011;3449;48.728;8.968;2023-07-08T11:13:12;3.20;;;1.50;;
6821;SDS011;3449;48.728;8.968;2023-07-08T11:15:45;2.47;;;2.00;;
6821;SDS011;3449;48.728;8.968;2023-07-08T11:18:18;1.67;;;1.50;;
6821;SDS011;3449;48.728;8.968;2023-07-08T11:20:51;2.60;;;1.40;;
6821;SDS011;3449;48.728;8.968;2023-07-08T11:23:25;2.67;;;1.53;;
6821;SDS011;3449;48.728;8.968;2023-07-08T11:26:05;2.40;;;1.87;;
6821;SDS011;3449;48.728;8.968;2023-07-08T11:28:38;3.50;;;1.60;;
6821;SDS011;3449;48.728;8.968;2023-07-08T11:31:05;3.60;;;1.83;;
6821;SDS011;3449;48.728;8.968;2023-07-08T11:33:32;2.47;;;2.10;;
6821;SDS011;3449;48.728;8.968;2023-07-08T11:36:00;3.50;;;1.80;;
6821;SDS011;3449;48.728;8.968;2023-07-08T11:38:33;3.33;;;2.13;;
6821;SDS011;3449;48.728;8.968;2023-07-08T11:41:02;2.93;;;1.87;;
6821;SDS011;3449;48.728;8.968;2023-07-08T11:43:33;50.27;;;3.57;;
6821;SDS011;3449;48.728;8.968;2023-07-08T11:46:04;3.60;;;2.30;;
6821;SDS011;3449;48.728;8.968;2023-07-08T11:48:35;3.23;;;1.80;;
6821;SDS011;3449;48.728;8.968;2023-07-08T11:51:06;6.87;;;3.10;;
6821;SDS011;3449;48.728;8.968;2023-07-08T11:53:38;4.80;;;4.00;;
6821;SDS011;3449;48.728;8.968;2023-07-08T11:56:22;2.97;;;2.00;;
6821;SDS011;3449;48.728;8.968;2023-07-08T11:58:51;4.77;;;1.77;;
6821;SDS011;3449;48.728;8.968;2023-07-08T12:01:26;9.10;;;3.23;;
6821;SDS011;3449;48.728;8.968;2023-07-08T12:03:55;2.70;;;1.43;;
6821;SDS011;3449;48.728;8.968;2023-07-08T12:06:42;1.57;;;1.43;;
6821;SDS011;3449;48.728;8.968;2023-07-08T12:09:20;1.80;;;1.43;;
6821;SDS011;3449;48.728;8.968;2023-07-08T12:11:53;8.80;;;4.47;;
6821;SDS011;3449;48.728;8.968;2023-07-08T12:14:24;3.73;;;1.73;;
6821;SDS011;3449;48.728;8.968;2023-07-08T12:16:53;2.80;;;2.60;;
6821;SDS011;3449;48.728;8.968;2023-07-08T12:19:20;3.10;;;1.47;;
6821;SDS011;3449;48.728;8.968;2023-07-08T12:21:51;3.30;;;1.60;;
6821;SDS011;3449;48.728;8.968;2023-07-08T12:24:20;2.07;;;1.80;;
6821;SDS011;3449;48.728;8.968;2023-07-08T12:26:51;5.73;;;3.03;;
6821;SDS011;3449;48.728;8.968;2023-07-08T12:29:18;2.40;;;1.30;;
6821;SDS011;3449;48.728;8.968;2023-07-08T12:31:45;2.30;;;1.40;;
6821;SDS011;3449;48.728;8.968;2023-07-08T12:34:13;4.30;;;1.70;;
6821;SDS011;3449;48.728;8.968;2023-07-08T12:36:41;1.87;;;1.50;;
6821;SDS011;3449;48.728;8.968;2023-07-08T12:39:10;4.27;;;3.70;;
6821;SDS011;3449;48.728;8.968;2023-07-08T12:41:43;2.60;;;1.63;;
6821;SDS011;3449;48.728;8.968;2023-07-08T12:44:16;2.10;;;1.57;;
6821;SDS011;3449;48.728;8.968;2023-07-08T12:46:45;3.17;;;1.97;;
6821;SDS011;3449;48.728;8.968;2023-07-08T12:49:14;2.63;;;1.50;;
6821;SDS011;3449;48.728;8.968;2023-07-08T12:51:43;2.40;;;1.90;;
6821;SDS011;3449;48.728;8.968;2023-07-08T12:54:11;6.13;;;1.70;;
6821;SDS011;3449;48.728;8.968;2023-07-08T12:56:38;3.63;;;1.80;;
6821;SDS011;3449;48.728;8.968;2023-07-08T12:59:12;3.10;;;2.33;;
6821;SDS011;3449;48.728;8.968;2023-07-08T13:01:44;8.10;;;2.37;;
6821;SDS011;3449;48.728;8.968;2023-07-08T13:04:13;1.93;;;1.33;;
6821;SDS011;3449;48.728;8.968;2023-07-08T13:06:41;2.83;;;1.70;;
6821;SDS011;3449;48.728;8.968;2023-07-08T13:09:17;2.17;;;1.60;;
6821;SDS011;3449;48.728;8.968;2023-07-08T13:11:50;2.63;;;1.50;;
6821;SDS011;3449;48.728;8.968;2023-07-08T13:14:22;3.70;;;1.50;;
6821;SDS011;3449;48.728;8.968;2023-07-08T13:16:53;3.23;;;1.97;;
6821;SDS011;3449;48.728;8.968;2023-07-08T13:19:20;1.53;;;1.30;;
6821;SDS011;3449;48.728;8.968;2023-07-08T13:21:49;4.23;;;3.07;;
6821;SDS011;3449;48.728;8.968;2023-07-08T13:24:17;5.30;;;2.93;;
6821;SDS011;3449;48.728;8.968;2023-07-08T13:26:44;2.57;;;1.80;;
6821;SDS011;3449;48.728;8.968;2023-07-08T13:29:13;3.20;;;2.30;;
6821;SDS011;3449;48.728;8.968;2023-07-08T13:31:43;2.87;;;1.47;;
6821;SDS011;3449;48.728;8.968;2023-07-08T13:34:15;2.50;;;1.47;;
6821;SDS011;3449;48.728;8.968;2023-07-08T13:36:43;2.23;;;1.50;;
6821;SDS011;3449;48.728;8.968;2023-07-08T13:39:14;3.60;;;1.50;;
6821;SDS011;3449;48.728;8.968;2023-07-08T13:41:45;4.07;;;2.00;;
6821;SDS011;3449;48.728;8.968;2023-07-08T13:44:12;3.87;;;1.87;;
6821;SDS011;3449;48.728;8.968;2023-07-08T13:46:40;4.93;;;1.80;;
6821;SDS011;3449;48.728;8.968;2023-07-08T13:49:19;2.97;;;1.77;;
6821;SDS011;3449;48.728;8.968;2023-07-08T13:51:49;2.93;;;1.80;;
6821;SDS011;3449;48.728;8.968;2023-07-08T13:54:19;4.40;;;1.43;;
6821;SDS011;3449;48.728;8.968;2023-07-08T13:56:48;3.37;;;1.50;;
6821;SDS011;3449;48.728;8.968;2023-07-08T13:59:18;7.43;;;1.83;;
6821;SDS011;3449;48.728;8.968;2023-07-08T14:01:50;2.13;;;1.20;;
6821;SDS011;3449;48.728;8.968;2023-07-08T14:04:20;4.70;;;3.53;;
6821;SDS011;3449;48.728;8.968;2023-07-08T14:06:54;5.00;;;2.07;;
6821;SDS011;3449;48.728;8.968;2023-07-08T14:09:24;3.30;;;3.10;;
6821;SDS011;3449;48.728;8.968;2023-07-08T14:11:51;2.80;;;1.60;;
6821;SDS011;3449;48.728;8.968;2023-07-08T14:14:18;3.20;;;2.20;;
6821;SDS011;3449;48.728;8.968;2023-07-08T14:16:46;4.43;;;2.93;;
6821;SDS011;3449;48.728;8.968;2023-07-08T14:19:19;6.10;;;2.70;;
6821;SDS011;3449;48.728;8.968;2023-07-08T14:21:48;6.43;;;2.27;;
6821;SDS011;3449;48.728;8.968;2023-07-08T14:24:20;3.47;;;2.17;;
6821;SDS011;3449;48.728;8.968;2023-07-08T14:26:47;2.80;;;1.80;;
6821;SDS011;3449;48.728;8.968;2023-07-08T14:29:14;2.33;;;1.73;;
6821;SDS011;3449;48.728;8.968;2023-07-08T14:31:41;2.53;;;1.30;;
6821;SDS011;3449;48.728;8.968;2023-07-08T14:34:11;3.13;;;1.63;;
6821;SDS011;3449;48.728;8.968;2023-07-08T14:36:38;6.43;;;2.20;;
6821;SDS011;3449;48.728;8.968;2023-07-08T14:39:09;2.40;;;1.97;;
6821;SDS011;3449;48.728;8.968;2023-07-08T14:41:38;4.60;;;1.83;;
6821;SDS011;3449;48.728;8.968;2023-07-08T14:44:10;2.30;;;1.63;;
6821;SDS011;3449;48.728;8.968;2023-07-08T14:46:46;2.23;;;1.60;;
6821;SDS011;3449;48.728;8.968;2023-07-08T14:49:18;2.40;;;1.80;;
6821;SDS011;3449;48.728;8.968;2023-07-08T14:51:46;3.00;;;2.80;;
6821;SDS011;3449;48.728;8.968;2023-07-08T14:54:13;2.40;;;2.00;;
6821;SDS011;3449;48.728;8.968;2023-07-08T14:56:40;2.53;;;1.63;;
6821;SDS011;3449;48.728;8.968;2023-07-08T14:59:09;7.20;;;3.67;;
6821;SDS011;3449;48.728;8.968;2023-07-08T15:01:41;3.27;;;2.43;;
6821;SDS011;3449;48.728;8.968;2023-07-08T15:04:09;2.00;;;1.80;;
6821;SDS011;3449;48.728;8.968;2023-07-08T15:06:39;2.57;;;2.20;;
6821;SDS011;3449;48.728;8.968;2023-07-08T15:09:08;4.60;;;1.97;;
6821;SDS011;3449;48.728;8.968;2023-07-08T15:11:36;4.00;;;2.03;;
6821;SDS011;3449;48.728;8.968;2023-07-08T15:14:04;2.83;;;2.30;;
6821;SDS011;3449;48.728;8.968;2023-07-08T15:16:36;7.70;;;3.50;;
6821;SDS011;3449;48.728;8.968;2023-07-08T15:19:07;2.43;;;2.00;;
6821;SDS011;3449;48.728;8.968;2023-07-08T15:21:35;3.37;;;1.80;;
6821;SDS011;3449;48.728;8.968;2023-07-08T15:24:08;2.97;;;1.50;;